Minsk In-Min, Belarus

9:21 AM FET on October 26, 2014 (GMT +0300)
Minsk | Change Station
CLOSE
Current Station
Personal Weather Station
Location: U044C, %U041C%U0438%U043D%U0441%U043A%U0430%U044F %U043E%U0431%U043B%U0430%U0441%U0442%U044C
Elevation: 686 ft
Nearby Weather Stations

Elev 686 ft 53.97 °N, 27.59 °E | Updated 22 minutes ago

Clear
Clear
22.1 °F
Feels Like 22 °F
N
1.3
Wind Variable Wind from ESE
Gusts 1.3 mph

Today
High -- | Low -- °F
--% Chance of Precip.
Yesterday
High -- | Low -- °F
Precip. -- in
7:57 AM 5:48 PM
Waxing Crescent, 6% visible
Pressure 30.51 in
Visibility -9999.0 miles
Clouds
Windchill 22 °F
Dew Point 12 °F
Humidity 63%
Rainfall 0.00 in
Snow Depth Not available.
UV 0.0 out of 12
Pollen Not available.
Air Quality Not available.
Flu Activity Not available.
METAR UMMS 260600Z 18003G06MPS 150V210 CAVOK M04/M10 Q1033 R13/CLRD// NOSIG

More Conditions Fewer Conditions

Pressure 30.51 in
Visibility -9999.0 miles
Clouds
Windchill 22 °F
Dew Point 12 °F
Humidity 63%
Rainfall 0.00 in
Snow Depth Not available.
UV 0.0 out of 12
Pollen Not available.
Air Quality Not available.
Flu Activity Not available.
METAR UMMS 260600Z 18003G06MPS 150V210 CAVOK M04/M10 Q1033 R13/CLRD// NOSIG

More Conditions Fewer Conditions

10-Day Weather Forecast

Almanac

Astronomy

Oct. 26, 2014 Rise Set
Actual Time 7:57 AM FET 5:48 PM FET
Civil Twilight 7:21 AM FET 6:25 PM FET
Nautical Twilight 6:40 AM FET 7:06 PM FET
Astronomical Twilight 5:59 AM FET 7:47 PM FET
Moon 10:32 AM FET 7:27 PM FET
Length of Visible Light 11h 04m
Length of Day
9h 50m
Tomorrow will be 4m 3s shorter.
Waxing Crescent, 6% of the Moon is Illuminated
Today
Waxing Crescent
Oct 30
First Quarter
Nov 6
Full
Nov 14
Last Quarter
Nov 22
New

Yesterday's Extremes

Country Highs Country Lows

Community

WunderPhotos

Upload Photos

1,765,114 photos uploaded!

Nearby

Snow Depth

Not available.

Earthquake Activity

City Distance Mag. Time & Date
No recent earthquake activity has been reported nearby.
Minimum magnitude displayed is 2.5.

Coastal Water Temperatures

Place Temperature
No Stations Reporting

Nearby Weather Stations